Time;durP1;ratioP1;P1;durP2;ratioP2;P2;SDS_P1;SDS_P2;PMS_P1;PMS_P2;Temp;Humidity;BMP_temperature;BMP_pressure;BME280_temperature;BME280_humidity;BME280_pressure;Samples;Min_cycle;Max_cycle;Signal;HPM_P1;HPM_P2
2022/10/23 00:01:29;;;;;;;7.25;4.53;;;;;;;8.47;58.38;101514.28;5008019;28;20479;-72
2022/10/23 00:04:07;;;;;;;13.00;5.18;;;;;;;8.51;58.47;101510.69;5037081;28;20045;-71
2022/10/23 00:06:34;;;;;;;11.38;6.13;;;;;;;8.60;58.72;101511.41;5021686;28;20024;-72
2022/10/23 00:09:01;;;;;;;10.23;6.38;;;;;;;8.67;58.91;101511.25;5020336;28;20463;-72
2022/10/23 00:11:28;;;;;;;7.18;4.60;;;;;;;8.73;58.52;101511.13;5029682;28;20036;-72
2022/10/23 00:13:56;;;;;;;7.28;5.45;;;;;;;8.69;58.42;101508.59;5037853;28;20045;-72
2022/10/23 00:16:22;;;;;;;15.00;5.57;;;;;;;8.83;58.46;101510.91;5039311;28;20041;-72
2022/10/23 00:18:48;;;;;;;8.82;6.13;;;;;;;8.89;58.32;101514.25;5038506;28;20332;-71
2022/10/23 00:21:15;;;;;;;13.50;6.32;;;;;;;8.89;58.62;101511.63;5021406;28;20064;-72
2022/10/23 00:23:41;;;;;;;9.30;6.18;;;;;;;8.98;58.47;101513.19;5038267;28;20057;-72
2022/10/23 00:26:13;;;;;;;18.50;7.32;;;;;;;9.05;58.45;101506.06;5039954;28;20052;-72
2022/10/23 00:28:39;;;;;;;9.13;6.75;;;;;;;9.13;58.69;101514.59;5020173;28;20393;-72
2022/10/23 00:31:07;;;;;;;12.25;6.00;;;;;;;9.19;58.67;101515.28;5004852;28;20025;-72
2022/10/23 00:33:33;;;;;;;12.15;7.10;;;;;;;9.25;58.61;101514.28;5010397;28;20037;-71
2022/10/23 00:35:59;;;;;;;16.23;7.10;;;;;;;9.33;58.59;101496.69;5038179;28;23044;-72
2022/10/23 00:38:25;;;;;;;12.40;7.47;;;;;;;9.35;58.09;101505.34;5020411;28;20465;-70
2022/10/23 00:40:51;;;;;;;9.65;7.15;;;;;;;9.27;58.52;101507.25;5038437;28;20049;-71
2022/10/23 00:43:23;;;;;;;10.75;6.72;;;;;;;9.21;58.43;101499.63;5013786;28;20033;-71
2022/10/23 00:45:48;;;;;;;15.18;6.18;;;;;;;9.26;58.39;101500.34;5020982;28;20139;-71
2022/10/23 00:48:15;;;;;;;9.60;6.13;;;;;;;9.26;58.43;101500.34;5002447;28;20060;-73
2022/10/23 00:50:41;;;;;;;13.02;7.35;;;;;;;9.28;58.00;101500.31;5020447;28;20025;-73
2022/10/23 00:53:09;;;;;;;10.00;6.13;;;;;;;9.24;57.92;101501.28;5017749;28;20072;-71
2022/10/23 00:55:37;;;;;;;16.38;8.25;;;;;;;9.17;58.34;101487.53;5020937;28;20045;-71
2022/10/23 00:58:03;;;;;;;12.32;7.35;;;;;;;9.16;58.46;101491.03;5018628;28;20037;-71
2022/10/23 01:00:50;;;;;;;7.43;6.10;;;;;;;9.18;58.43;101484.88;5038282;28;20025;-71
2022/10/23 01:03:22;;;;;;;9.05;7.30;;;;;;;9.15;58.37;101492.78;5037677;28;20033;-71
2022/10/23 01:05:47;;;;;;;10.90;7.13;;;;;;;9.09;58.07;101492.91;5038276;28;20029;-71
2022/10/23 01:08:30;;;;;;;9.23;6.10;;;;;;;9.05;58.20;101491.28;4993612;28;20415;-72
2022/10/23 01:11:25;;;;;;;9.82;5.57;;;;;;;9.01;57.87;101494.00;5019489;28;20036;-71
2022/10/23 01:14:17;;;;;;;10.57;6.70;;;;;;;8.89;57.74;101496.00;5013030;28;20083;-71
2022/10/23 01:16:51;;;;;;;6.93;5.05;;;;;;;8.91;57.80;101493.34;5001617;28;20082;-71
2022/10/23 01:19:32;;;;;;;13.10;6.15;;;;;;;8.88;57.81;101491.69;5021127;28;20421;-71
2022/10/23 01:22:17;;;;;;;9.38;5.82;;;;;;;8.80;58.03;101485.78;5008636;28;20575;-72
2022/10/23 01:25:04;;;;;;;9.15;5.20;;;;;;;8.80;58.00;101485.78;5019729;28;20078;-71
2022/10/23 01:27:38;;;;;;;9.10;5.75;;;;;;;8.73;57.91;101489.41;5020082;28;20041;-71
2022/10/23 01:30:07;;;;;;;13.32;7.88;;;;;;;8.66;58.43;101482.59;5002052;28;20033;-71
2022/10/23 01:32:44;;;;;;;13.40;8.00;;;;;;;8.65;58.57;101483.47;4997564;28;20095;-71
2022/10/23 01:35:28;;;;;;;19.67;8.25;;;;;;;8.69;58.67;101487.75;5035462;28;20115;-71
2022/10/23 01:38:11;;;;;;;14.85;7.60;;;;;;;8.64;58.44;101489.59;5018657;28;20037;-71
2022/10/23 01:40:54;;;;;;;13.32;7.50;;;;;;;8.66;58.37;101487.81;5019324;28;20060;-71
2022/10/23 01:43:27;;;;;;;7.75;5.72;;;;;;;8.67;58.01;101489.53;5019444;28;20164;-72
2022/10/23 01:46:01;;;;;;;18.58;7.65;;;;;;;8.68;57.49;101486.03;5034782;28;20071;-72
2022/10/23 01:48:33;;;;;;;10.90;6.20;;;;;;;8.52;57.82;101486.38;5015165;28;20060;-72
2022/10/23 01:51:03;;;;;;;7.63;5.20;;;;;;;8.45;58.02;101490.00;5019222;28;22587;-71
2022/10/23 01:53:35;;;;;;;6.25;4.93;;;;;;;8.41;57.76;101488.34;5002933;28;20083;-70
2022/10/23 01:56:05;;;;;;;8.63;5.70;;;;;;;8.39;57.75;101484.91;4998569;28;20028;-71
2022/10/23 01:58:34;;;;;;;14.05;6.13;;;;;;;8.29;57.81;101483.38;5011083;28;20082;-71
2022/10/23 02:01:05;;;;;;;10.90;5.82;;;;;;;8.18;57.71;101486.19;5010511;28;20140;-71
2022/10/23 02:03:39;;;;;;;10.45;6.25;;;;;;;8.11;58.09;101482.91;5009776;28;20530;-72
2022/10/23 02:06:05;;;;;;;11.32;7.28;;;;;;;8.08;58.46;101485.53;5036518;28;20099;-72
2022/10/23 02:08:31;;;;;;;9.60;6.32;;;;;;;8.01;58.61;101485.69;5002587;28;20048;-72
2022/10/23 02:11:10;;;;;;;8.25;5.95;;;;;;;8.02;58.28;101488.25;5002386;28;20083;-72
2022/10/23 02:13:45;;;;;;;11.77;6.00;;;;;;;7.92;58.00;101484.13;5018821;28;20029;-71
2022/10/23 02:16:29;;;;;;;7.90;5.35;;;;;;;7.86;58.49;101486.84;5028344;28;20033;-73
2022/10/23 02:19:20;;;;;;;7.82;6.32;;;;;;;7.81;58.39;101484.31;5030706;28;20066;-71
2022/10/23 02:22:02;;;;;;;6.68;5.05;;;;;;;7.76;58.03;101482.69;5011489;28;20029;-72
2022/10/23 02:24:38;;;;;;;7.60;5.88;;;;;;;7.68;58.23;101475.88;5054126;28;20033;-71
2022/10/23 02:27:14;;;;;;;5.85;5.22;;;;;;;7.65;58.02;101475.09;5013624;28;20064;-71
2022/10/23 02:29:57;;;;;;;6.30;4.63;;;;;;;7.60;58.35;101475.19;5027255;28;20039;-70
2022/10/23 02:32:27;;;;;;;7.00;5.32;;;;;;;7.58;58.49;101473.47;5034497;28;20045;-73
2022/10/23 02:34:53;;;;;;;5.40;3.75;;;;;;;7.58;58.36;101476.94;5049643;28;20445;-71
2022/10/23 02:37:18;;;;;;;9.15;5.15;;;;;;;7.47;58.16;101477.09;5032663;28;20100;-73
2022/10/23 02:39:44;;;;;;;8.02;5.03;;;;;;;7.43;58.72;101469.38;5051108;28;20029;-73
2022/10/23 02:42:26;;;;;;;9.80;5.22;;;;;;;7.33;58.88;101460.84;5033538;28;20056;-71
2022/10/23 02:45:11;;;;;;;4.65;3.85;;;;;;;7.38;58.85;101466.84;5043691;28;20118;-70
2022/10/23 02:47:54;;;;;;;4.82;3.83;;;;;;;7.42;58.38;101463.31;5050378;28;20493;-71
2022/10/23 02:50:26;;;;;;;6.70;4.57;;;;;;;7.45;57.91;101454.59;5033816;28;20037;-72
2022/10/23 02:53:03;;;;;;;7.65;5.03;;;;;;;7.39;58.02;101447.75;5018677;28;20477;-71
2022/10/23 02:55:49;;;;;;;5.57;3.97;;;;;;;7.35;58.11;101448.69;5025524;28;20025;-71
2022/10/23 02:58:18;;;;;;;5.47;3.30;;;;;;;7.33;58.04;101447.84;5045859;28;20044;-71
2022/10/23 03:00:49;;;;;;;6.75;4.95;;;;;;;7.32;57.62;101446.16;5028465;28;20048;-71
2022/10/23 03:03:27;;;;;;;13.45;5.20;;;;;;;7.27;57.81;101454.03;5012343;28;20030;-71
2022/10/23 03:05:54;;;;;;;6.78;4.18;;;;;;;7.26;58.33;101449.69;5029836;28;20029;-72
2022/10/23 03:08:19;;;;;;;9.30;4.55;;;;;;;7.29;58.08;101452.28;5045256;28;20052;-71
2022/10/23 03:10:44;;;;;;;8.73;3.30;;;;;;;7.22;57.76;101445.47;5011791;28;20083;-71
2022/10/23 03:13:10;;;;;;;4.85;3.55;;;;;;;7.15;57.53;101449.03;5019666;28;20131;-73
2022/10/23 03:15:41;;;;;;;4.15;3.33;;;;;;;7.09;57.90;101444.81;5028815;28;20028;-71
2022/10/23 03:18:10;;;;;;;4.28;2.97;;;;;;;7.11;57.80;101444.78;5013059;28;20037;-71
2022/10/23 03:20:37;;;;;;;5.93;4.00;;;;;;;7.05;57.72;101448.31;5027278;28;20035;-71
2022/10/23 03:23:03;;;;;;;4.80;3.50;;;;;;;6.97;57.88;101444.97;5027764;28;20032;-71
2022/10/23 03:25:29;;;;;;;4.68;2.92;;;;;;;6.97;57.83;101444.97;5028842;28;20108;-70
2022/10/23 03:27:56;;;;;;;5.13;3.20;;;;;;;6.91;57.77;101445.09;5026999;28;20055;-70
2022/10/23 03:30:22;;;;;;;6.20;3.80;;;;;;;6.97;57.73;101444.13;5013749;28;20033;-72
2022/10/23 03:32:52;;;;;;;4.18;3.65;;;;;;;6.97;57.40;101438.94;5022184;28;20071;-72
2022/10/23 03:35:17;;;;;;;10.63;4.55;;;;;;;6.88;57.90;101440.78;5021861;28;20029;-71
2022/10/23 03:37:43;;;;;;;6.38;4.68;;;;;;;6.84;58.03;101436.53;5001200;28;20252;-72
2022/10/23 03:40:09;;;;;;;8.85;3.50;;;;;;;6.73;58.57;101435.84;5021538;28;20330;-71
2022/10/23 03:42:35;;;;;;;7.78;4.22;;;;;;;6.73;58.74;101433.25;5022140;28;20698;-73
2022/10/23 03:45:00;;;;;;;11.75;5.05;;;;;;;6.83;59.49;101427.00;5021639;28;20037;-72
2022/10/23 03:47:26;;;;;;;5.00;3.78;;;;;;;6.85;59.31;101424.41;5031093;28;20371;-71
2022/10/23 03:49:51;;;;;;;12.07;5.15;;;;;;;6.93;59.51;101421.66;5006061;28;20520;-72
2022/10/23 03:52:17;;;;;;;10.35;5.75;;;;;;;7.03;59.61;101423.25;5004038;28;20136;-71
2022/10/23 03:54:42;;;;;;;7.70;5.82;;;;;;;7.10;60.05;101411.84;5021773;28;20040;-71
2022/10/23 03:57:09;;;;;;;14.55;5.25;;;;;;;7.16;59.68;101409.16;5020329;28;20486;-71
2022/10/23 03:59:34;;;;;;;16.05;5.78;;;;;;;7.16;59.49;101416.09;5022785;28;20125;-72
2022/10/23 04:02:00;;;;;;;7.35;5.45;;;;;;;7.14;59.26;101402.28;5001883;28;20140;-73
2022/10/23 04:04:26;;;;;;;7.90;5.18;;;;;;;7.12;59.15;101412.69;5022242;28;20482;-72
2022/10/23 04:06:52;;;;;;;8.85;5.28;;;;;;;7.17;58.97;101421.25;5015957;28;20463;-72
2022/10/23 04:09:18;;;;;;;4.50;3.97;;;;;;;7.21;58.71;101415.13;5021673;28;20055;-73
2022/10/23 04:11:44;;;;;;;5.22;4.63;;;;;;;7.10;58.64;101419.66;5020203;28;20052;-71
2022/10/23 04:14:12;;;;;;;5.72;5.00;;;;;;;7.05;58.65;101416.28;5015044;28;20033;-71
2022/10/23 04:16:38;;;;;;;6.72;4.78;;;;;;;7.00;58.80;101412.88;5037345;28;20021;-73
2022/10/23 04:19:04;;;;;;;6.45;5.05;;;;;;;7.08;58.76;101405.81;5020534;28;20341;-71
2022/10/23 04:21:30;;;;;;;5.72;4.50;;;;;;;7.07;58.69;101414.53;5022549;28;20354;-70
2022/10/23 04:23:55;;;;;;;16.10;5.82;;;;;;;7.11;58.50;101413.59;5037522;28;20083;-73
2022/10/23 04:26:21;;;;;;;6.63;4.57;;;;;;;7.09;58.89;101412.75;5021180;28;20036;-72
2022/10/23 04:28:48;;;;;;;6.30;5.25;;;;;;;7.09;58.89;101402.34;5019629;28;20032;-73
2022/10/23 04:31:16;;;;;;;7.88;5.45;;;;;;;7.08;59.09;101396.28;5019473;28;20044;-72
2022/10/23 04:33:42;;;;;;;7.70;5.70;;;;;;;7.12;59.37;101397.94;5018910;28;20048;-71
2022/10/23 04:36:08;;;;;;;6.88;5.70;;;;;;;7.10;59.43;101398.84;5039157;28;20104;-73
2022/10/23 04:38:34;;;;;;;8.52;6.13;;;;;;;7.12;59.65;101399.69;5002497;28;20040;-71
2022/10/23 04:41:00;;;;;;;7.93;5.90;;;;;;;7.13;59.34;101404.00;5020352;28;20037;-71
2022/10/23 04:43:27;;;;;;;7.78;5.88;;;;;;;7.08;59.07;101411.03;5020092;28;20079;-71
2022/10/23 04:45:52;;;;;;;6.57;5.22;;;;;;;7.09;59.25;101407.56;5020501;28;20092;-71
2022/10/23 04:48:19;;;;;;;6.65;5.50;;;;;;;7.09;59.37;101391.97;5019275;28;20041;-72
2022/10/23 04:51:10;;;;;;;5.70;5.15;;;;;;;7.08;59.18;101390.22;5002941;28;20040;-71
2022/10/23 04:53:52;;;;;;;6.72;4.95;;;;;;;7.09;59.47;101390.22;5019895;28;20051;-71
2022/10/23 04:56:47;;;;;;;7.03;4.93;;;;;;;7.18;59.70;101380.56;4932838;28;20116;-71
2022/10/23 04:59:16;;;;;;;6.20;5.03;;;;;;;7.20;59.52;101379.63;5038674;28;20470;-71
2022/10/23 05:01:42;;;;;;;25.55;4.57;;;;;;;7.20;59.80;101395.22;5001460;28;20036;-71
2022/10/23 05:04:08;;;;;;;22.63;5.85;;;;;;;7.17;59.50;101384.00;5020331;28;20036;-71
2022/10/23 05:06:53;;;;;;;10.23;4.70;;;;;;;7.19;59.89;101385.69;5036011;28;20041;-71
2022/10/23 05:09:32;;;;;;;9.05;4.78;;;;;;;7.22;59.42;101388.25;5020826;28;20028;-71
2022/10/23 05:12:25;;;;;;;4.53;3.95;;;;;;;7.17;59.29;101384.88;5019553;28;20114;-71
2022/10/23 05:14:51;;;;;;;4.22;3.42;;;;;;;7.14;59.64;101382.34;5036076;28;20158;-71
2022/10/23 05:17:22;;;;;;;5.78;4.60;;;;;;;7.16;59.84;101377.13;5017860;28;20075;-73
2022/10/23 05:19:52;;;;;;;9.77;4.20;;;;;;;7.17;59.19;101379.66;5018104;28;20376;-71
2022/10/23 05:22:23;;;;;;;6.78;4.50;;;;;;;7.10;59.66;101373.72;5002969;28;20425;-71
2022/10/23 05:24:51;;;;;;;6.13;4.10;;;;;;;7.17;59.23;101368.41;5003184;28;20123;-71
2022/10/23 05:27:20;;;;;;;5.85;4.32;;;;;;;7.15;59.44;101375.38;5019567;28;20028;-71
2022/10/23 05:29:46;;;;;;;5.03;4.45;;;;;;;7.18;59.87;101371.00;5019878;28;20385;-71
2022/10/23 05:32:13;;;;;;;5.43;4.40;;;;;;;7.22;59.74;101357.06;5017543;28;20128;-71
2022/10/23 05:34:40;;;;;;;5.50;4.47;;;;;;;7.22;59.86;101351.88;5003309;28;20109;-71
2022/10/23 05:37:09;;;;;;;7.90;5.07;;;;;;;7.21;59.59;101357.09;5017242;28;20040;-71
2022/10/23 05:39:39;;;;;;;6.93;5.88;;;;;;;7.18;59.83;101350.19;5018725;28;20039;-71
2022/10/23 05:42:10;;;;;;;9.85;5.25;;;;;;;7.26;59.82;101360.44;5034312;28;20402;-71
2022/10/23 05:44:36;;;;;;;6.30;5.32;;;;;;;7.30;59.70;101355.16;5019334;28;20513;-73
2022/10/23 05:47:11;;;;;;;8.10;5.18;;;;;;;7.32;59.65;101361.19;5003277;28;20044;-71
2022/10/23 05:49:39;;;;;;;9.45;5.63;;;;;;;7.35;59.38;101369.81;5019704;28;20479;-71
2022/10/23 05:52:23;;;;;;;9.60;5.22;;;;;;;7.29;59.45;101369.06;5037278;28;20106;-71
2022/10/23 05:55:07;;;;;;;10.57;5.82;;;;;;;7.23;59.62;101368.31;5036690;28;20281;-71
2022/10/23 05:57:56;;;;;;;8.65;5.97;;;;;;;7.23;59.88;101358.75;5015257;28;20061;-71
2022/10/23 06:00:44;;;;;;;7.75;5.07;;;;;;;7.30;59.68;101364.72;5036769;28;20041;-71
2022/10/23 06:03:30;;;;;;;10.65;6.28;;;;;;;7.32;59.63;101369.00;5036472;28;20044;-71
2022/10/23 06:05:55;;;;;;;14.82;6.97;;;;;;;7.31;59.74;101372.50;5018641;28;20119;-72
2022/10/23 06:08:26;;;;;;;8.55;5.07;;;;;;;7.29;59.60;101370.81;5036502;28;20041;-71
2022/10/23 06:10:52;;;;;;;9.98;6.28;;;;;;;7.35;59.58;101368.06;5018032;28;20035;-71
2022/10/23 06:13:18;;;;;;;8.85;6.15;;;;;;;7.36;59.58;101368.97;5001406;28;20041;-71
2022/10/23 06:15:43;;;;;;;9.25;6.15;;;;;;;7.42;59.18;101372.31;5018852;28;20112;-71
2022/10/23 06:18:20;;;;;;;7.57;4.53;;;;;;;7.39;59.01;101361.09;5002577;28;20041;-70
2022/10/23 06:21:02;;;;;;;9.38;5.25;;;;;;;7.33;58.78;101355.13;5018285;28;20040;-71
2022/10/23 06:23:33;;;;;;;10.40;6.85;;;;;;;7.33;59.59;101349.91;5018957;28;20045;-71
2022/10/23 06:26:35;;;;;;;13.23;6.88;;;;;;;7.47;59.89;101341.84;4991173;28;20103;-70
2022/10/23 06:29:18;;;;;;;14.13;7.28;;;;;;;7.48;59.76;101343.53;5018804;28;20273;-76
2022/10/23 06:31:43;;;;;;;10.27;6.78;;;;;;;7.55;60.00;101344.31;5002672;28;20039;-70
2022/10/23 06:34:11;;;;;;;12.98;7.93;;;;;;;7.52;59.91;101341.75;5006751;28;20128;-71
2022/10/23 06:36:37;;;;;;;18.65;7.72;;;;;;;7.55;60.05;101344.31;5021852;28;20497;-70
2022/10/23 06:39:21;;;;;;;14.13;8.05;;;;;;;7.68;60.03;101355.34;5040833;28;20107;-71
2022/10/23 06:42:03;;;;;;;13.60;7.10;;;;;;;7.72;59.75;101352.66;5020176;28;20041;-73
2022/10/23 06:44:56;;;;;;;16.75;7.43;;;;;;;7.86;59.82;101354.09;5023597;28;20040;-71
2022/10/23 06:47:40;;;;;;;13.55;8.25;;;;;;;7.90;59.83;101355.75;5024729;28;20051;-70
2022/10/23 06:50:24;;;;;;;18.05;9.65;;;;;;;7.84;60.21;101343.72;5040360;28;20107;-73
2022/10/23 06:52:50;;;;;;;13.07;7.53;;;;;;;7.98;60.32;101352.97;5021796;28;20414;-70
2022/10/23 06:55:17;;;;;;;14.45;8.88;;;;;;;7.98;60.24;101346.06;5012724;28;20033;-73
2022/10/23 06:57:43;;;;;;;14.25;8.00;;;;;;;8.06;60.25;101340.66;5021330;28;20041;-71
2022/10/23 07:00:09;;;;;;;11.65;7.85;;;;;;;8.23;59.93;101350.72;5030121;28;20059;-70
2022/10/23 07:02:43;;;;;;;21.55;9.38;;;;;;;8.36;59.48;101341.75;5019225;28;20395;-72
2022/10/23 07:05:08;;;;;;;14.23;8.35;;;;;;;8.31;59.31;101341.81;5021869;28;20094;-71
2022/10/23 07:07:34;;;;;;;16.30;8.77;;;;;;;8.39;59.15;101341.66;5005350;28;20044;-71
2022/10/23 07:10:00;;;;;;;12.18;8.55;;;;;;;8.44;59.12;101342.38;5022700;28;20098;-71
2022/10/23 07:12:38;;;;;;;14.23;8.48;;;;;;;8.38;59.33;101332.09;5007590;28;20077;-71
2022/10/23 07:15:25;;;;;;;15.07;9.23;;;;;;;8.43;59.08;101330.28;5038013;28;20061;-71
2022/10/23 07:17:51;;;;;;;14.65;8.85;;;;;;;8.45;59.17;101325.88;5038258;28;20550;-71
2022/10/23 07:20:18;;;;;;;16.52;8.68;;;;;;;8.48;59.01;101323.19;5027698;28;20029;-72
2022/10/23 07:22:49;;;;;;;21.25;8.65;;;;;;;8.57;59.36;101322.97;5039042;28;20118;-71
2022/10/23 07:25:23;;;;;;;14.50;8.52;;;;;;;8.67;58.80;101326.22;5014264;28;20047;-70
2022/10/23 07:27:48;;;;;;;16.08;9.10;;;;;;;8.77;58.55;101324.25;5039067;28;20097;-71
2022/10/23 07:30:15;;;;;;;18.52;9.15;;;;;;;8.89;58.76;101336.13;5021838;28;20060;-70
2022/10/23 07:32:49;;;;;;;16.73;9.52;;;;;;;9.02;58.30;101339.28;5021433;28;20128;-71
2022/10/23 07:35:33;;;;;;;11.93;7.93;;;;;;;9.26;58.73;101336.03;5025552;28;20186;-71
2022/10/23 07:38:05;;;;;;;13.63;9.00;;;;;;;9.43;58.13;101329.47;5038090;28;20129;-71
2022/10/23 07:40:35;;;;;;;16.50;9.05;;;;;;;9.61;57.58;101331.59;5021391;28;20036;-70
2022/10/23 07:43:02;;;;;;;18.65;8.52;;;;;;;9.76;57.18;101331.09;5004159;28;20255;-71
2022/10/23 07:45:27;;;;;;;16.85;8.40;;;;;;;9.79;57.06;101325.84;4998267;28;20043;-70
2022/10/23 07:47:53;;;;;;;15.68;7.88;;;;;;;9.89;56.87;101333.41;5020838;28;20149;-71
2022/10/23 07:50:23;;;;;;;14.43;8.23;;;;;;;10.01;56.55;101335.63;5020087;28;20033;-71
2022/10/23 07:52:48;;;;;;;16.85;7.22;;;;;;;9.99;56.49;101340.03;5020589;28;20047;-71
2022/10/23 07:55:16;;;;;;;11.75;7.18;;;;;;;9.90;56.58;101330.75;5016633;28;20024;-71
2022/10/23 07:58:01;;;;;;;11.60;6.80;;;;;;;9.93;56.94;101329.81;5037636;28;20036;-72
2022/10/23 08:00:39;;;;;;;11.38;6.53;;;;;;;9.97;57.46;101340.13;5005448;28;20028;-70
2022/10/23 08:03:11;;;;;;;12.30;7.00;;;;;;;10.00;56.47;101336.56;5020385;28;20044;-72
2022/10/23 08:05:38;;;;;;;14.32;7.38;;;;;;;10.11;57.03;101339.69;5015774;28;20079;-72
2022/10/23 08:08:03;;;;;;;14.18;7.28;;;;;;;10.16;57.01;101331.72;5005018;28;20045;-71
2022/10/23 08:10:29;;;;;;;12.55;7.50;;;;;;;10.27;56.47;101332.22;5021418;28;20067;-72
2022/10/23 08:12:56;;;;;;;10.95;7.40;;;;;;;10.30;56.90;101332.13;5020450;28;20045;-72
2022/10/23 08:15:41;;;;;;;9.15;6.15;;;;;;;10.40;56.25;101336.16;5021436;28;20178;-71
2022/10/23 08:18:20;;;;;;;12.65;5.97;;;;;;;10.41;56.97;101329.16;5020222;28;20049;-73
2022/10/23 08:20:47;;;;;;;9.18;6.35;;;;;;;10.55;56.13;101332.22;5020049;28;20901;-72
2022/10/23 08:23:16;;;;;;;64.55;30.75;;;;;;;10.58;56.13;101313.81;5020948;28;20041;-71
2022/10/23 08:25:42;;;;;;;10.57;6.47;;;;;;;10.74;55.98;101311.53;5021605;28;20047;-72
2022/10/23 08:28:09;;;;;;;10.40;6.88;;;;;;;10.84;55.55;101309.50;5019423;28;20037;-72
2022/10/23 08:30:42;;;;;;;26.90;11.63;;;;;;;10.87;55.60;101300.69;5020698;28;20508;-72
2022/10/23 08:33:08;;;;;;;18.10;8.60;;;;;;;10.88;55.53;101312.84;5019354;28;20053;-72
2022/10/23 08:35:37;;;;;;;13.90;8.35;;;;;;;10.82;55.59;101301.72;5038993;28;20039;-72
2022/10/23 08:38:05;;;;;;;24.55;13.15;;;;;;;11.00;55.15;101305.44;5018803;28;20048;-72
2022/10/23 08:40:34;;;;;;;8.07;5.78;;;;;;;10.98;54.81;101302.03;5038744;28;20349;-71
2022/10/23 08:43:52;;;;;;;12.23;7.43;;;;;;;10.90;54.83;101304.03;5002686;28;20628;-72
2022/10/23 08:46:32;;;;;;;8.90;5.93;;;;;;;11.02;55.10;101298.41;5019603;28;20401;-72
2022/10/23 08:49:24;;;;;;;25.92;10.73;;;;;;;10.89;54.89;101307.59;5037987;28;20060;-71
2022/10/23 08:51:59;;;;;;;10.57;5.63;;;;;;;10.89;54.83;101298.88;5010057;28;20562;-72
2022/10/23 08:54:37;;;;;;;11.40;6.50;;;;;;;10.98;54.75;101304.66;5019288;28;20646;-72
2022/10/23 08:57:11;;;;;;;14.80;5.47;;;;;;;10.84;55.05;101310.34;5011920;28;20069;-72
2022/10/23 08:59:47;;;;;;;8.60;5.22;;;;;;;10.90;55.23;101309.28;5037551;28;20088;-71
2022/10/23 09:02:26;;;;;;;13.10;5.82;;;;;;;10.85;55.57;101303.34;5038278;28;20061;-72
2022/10/23 09:04:53;;;;;;;12.32;6.10;;;;;;;10.95;55.54;101301.25;5038741;28;20267;-71
2022/10/23 09:08:01;;;;;;;9.15;5.55;;;;;;;10.93;55.61;101303.06;5037897;28;20120;-71
2022/10/23 09:14:54;;;;;;;11.80;5.45;;;;;;;11.39;54.65;101290.97;4958572;28;20090;-71
2022/10/23 09:17:29;;;;;;;6.05;4.43;;;;;;;11.51;54.46;101287.03;5035038;28;20036;-72
2022/10/23 09:20:06;;;;;;;7.55;5.10;;;;;;;11.41;54.52;101297.00;5037324;28;20247;-70
2022/10/23 09:22:31;;;;;;;8.70;5.32;;;;;;;11.37;54.66;101283.19;5003217;28;20029;-71
2022/10/23 09:24:57;;;;;;;12.18;5.80;;;;;;;11.27;55.01;101286.22;4994019;28;20044;-71
2022/10/23 09:27:23;;;;;;;6.10;4.47;;;;;;;11.45;54.56;101291.59;5006877;28;20426;-71
2022/10/23 09:29:51;;;;;;;10.20;5.07;;;;;;;11.41;54.72;101286.53;5009503;28;20061;-71
2022/10/23 09:32:18;;;;;;;8.65;4.80;;;;;;;11.35;54.90;101285.03;5006614;28;20033;-72
2022/10/23 09:34:52;;;;;;;5.65;4.13;;;;;;;11.19;54.96;101282.09;5006754;28;20041;-73
2022/10/23 09:37:26;;;;;;;7.90;4.93;;;;;;;11.43;54.71;101292.59;5008088;28;20137;-72
2022/10/23 09:40:34;;;;;;;11.88;5.55;;;;;;;11.48;54.72;101284.56;5008733;28;20493;-70
2022/10/23 09:43:12;;;;;;;8.52;5.15;;;;;;;11.74;54.08;101288.81;4998993;28;20258;-71
2022/10/23 09:45:41;;;;;;;7.25;4.53;;;;;;;11.60;54.59;101282.34;4980591;28;20038;-71
2022/10/23 09:48:14;;;;;;;14.95;5.72;;;;;;;11.85;54.13;101279.66;4991944;28;20458;-71
2022/10/23 09:51:16;;;;;;;9.23;4.75;;;;;;;12.05;53.66;101278.03;5015649;28;20089;-72
2022/10/23 09:53:52;;;;;;;9.88;4.65;;;;;;;12.36;53.06;101269.78;5007885;28;20096;-72
2022/10/23 09:56:32;;;;;;;9.48;4.88;;;;;;;12.40;53.33;101267.88;4998648;28;20038;-71
2022/10/23 09:59:18;;;;;;;11.68;4.03;;;;;;;12.65;52.73;101263.31;5005467;28;20050;-72
2022/10/23 10:01:47;;;;;;;7.13;4.45;;;;;;;12.83;52.32;101255.59;5003758;28;20072;-72
2022/10/23 10:04:45;;;;;;;10.98;4.38;;;;;;;12.96;51.46;101258.53;4997421;28;20065;-72
2022/10/23 10:07:23;;;;;;;9.00;4.47;;;;;;;13.14;51.47;101259.47;4988206;28;20612;-71
2022/10/23 10:09:49;;;;;;;12.77;3.90;;;;;;;13.33;51.85;101253.34;5006361;28;20056;-72
2022/10/23 10:12:45;;;;;;;6.50;3.85;;;;;;;13.84;50.66;101253.63;5007370;28;20052;-71
2022/10/23 10:15:20;;;;;;;10.98;3.92;;;;;;;13.93;49.95;101239.22;5004770;28;20034;-71
2022/10/23 10:18:30;;;;;;;6.03;3.40;;;;;;;14.05;49.28;101240.38;5003734;28;20052;-71
2022/10/23 10:20:55;;;;;;;11.57;3.70;;;;;;;14.02;49.10;101230.03;5004009;28;20090;-71
2022/10/23 10:23:43;;;;;;;4.07;2.92;;;;;;;14.10;49.56;101217.38;5006990;28;20046;-75
2022/10/23 10:26:33;;;;;;;6.03;3.97;;;;;;;14.59;48.40;101219.31;4982816;28;20394;-72
2022/10/23 10:29:15;;;;;;;6.90;3.53;;;;;;;14.92;48.41;101211.44;5004876;28;20507;-71
2022/10/23 10:31:58;;;;;;;6.53;3.30;;;;;;;15.40;47.14;101212.41;5003457;28;20030;-71
2022/10/23 10:34:50;;;;;;;6.82;3.08;;;;;;;15.33;47.59;101208.41;4988471;28;20516;-71
2022/10/23 10:37:20;;;;;;;10.75;3.25;;;;;;;15.81;46.35;101209.22;5011154;28;20045;-70
2022/10/23 10:39:51;;;;;;;10.60;4.07;;;;;;;15.66;46.35;101202.19;5026058;28;20458;-71
2022/10/23 10:42:23;;;;;;;7.22;3.28;;;;;;;15.56;47.00;101197.44;5010221;28;20057;-71
2022/10/23 10:44:48;;;;;;;6.35;3.45;;;;;;;15.57;47.10;101193.88;5025822;28;20063;-71
2022/10/23 10:47:41;;;;;;;7.28;3.10;;;;;;;15.42;46.80;101184.19;5028255;28;20369;-71
2022/10/23 10:50:25;;;;;;;8.38;3.03;;;;;;;14.98;47.72;101176.91;4992183;28;20037;-70
2022/10/23 10:53:32;;;;;;;7.70;3.47;;;;;;;14.65;48.74;101177.75;5017618;28;20522;-71
2022/10/23 10:56:00;;;;;;;5.88;3.17;;;;;;;14.74;48.76;101174.63;5025981;28;20686;-71
2022/10/23 10:58:35;;;;;;;12.65;4.47;;;;;;;14.92;48.10;101174.59;5008717;28;20045;-71
2022/10/23 11:01:07;;;;;;;9.10;3.13;;;;;;;15.15;47.95;101168.94;5026783;28;20809;-71
2022/10/23 11:03:38;;;;;;;7.20;3.20;;;;;;;14.97;48.46;101151.53;5026195;28;20047;-71
2022/10/23 11:06:10;;;;;;;3.43;2.50;;;;;;;14.81;48.61;101153.25;5029501;28;20480;-71
2022/10/23 11:08:38;;;;;;;12.05;2.72;;;;;;;14.77;48.37;101144.72;5008075;28;20048;-71
2022/10/23 11:11:39;;;;;;;5.90;2.85;;;;;;;14.74;48.81;101134.31;5012154;28;20030;-71
2022/10/23 11:14:13;;;;;;;7.47;2.60;;;;;;;15.17;48.18;101139.91;4994640;28;20103;-71
2022/10/23 11:16:41;;;;;;;7.60;3.20;;;;;;;15.06;47.96;101137.88;5004512;28;20405;-71
2022/10/23 11:19:16;;;;;;;7.57;2.25;;;;;;;15.46;47.72;101133.03;5031465;28;20427;-72
2022/10/23 11:22:10;;;;;;;5.30;2.65;;;;;;;15.74;47.23;101120.91;5012052;28;20079;-71
2022/10/23 11:24:58;;;;;;;4.60;1.98;;;;;;;15.74;46.83;101126.19;4994887;28;20107;-71
2022/10/23 11:27:56;;;;;;;6.72;2.28;;;;;;;15.70;47.04;101119.38;5029291;28;20125;-72
2022/10/23 11:30:29;;;;;;;5.53;2.72;;;;;;;15.73;46.83;101117.44;5028399;28;20669;-72
2022/10/23 11:33:22;;;;;;;9.30;3.28;;;;;;;15.55;47.31;101116.72;5009256;28;20091;-71
2022/10/23 11:36:04;;;;;;;6.63;2.17;;;;;;;15.50;47.40;101107.34;5027827;28;20037;-71
2022/10/23 11:38:35;;;;;;;8.20;2.70;;;;;;;15.22;48.37;101103.66;5010897;28;20084;-71
2022/10/23 11:41:04;;;;;;;3.85;1.65;;;;;;;15.15;48.26;101108.41;5013389;28;20068;-71
2022/10/23 11:43:47;;;;;;;4.70;2.28;;;;;;;14.97;48.95;101094.47;5011183;28;20160;-71
2022/10/23 11:46:28;;;;;;;5.28;2.53;;;;;;;14.93;49.26;101084.19;5030396;28;20033;-71
2022/10/23 11:48:55;;;;;;;5.22;2.53;;;;;;;15.28;48.71;101076.13;5028389;28;20661;-71
2022/10/23 11:51:27;;;;;;;4.13;2.50;;;;;;;15.43;48.41;101071.78;5009649;28;20039;-71
2022/10/23 11:54:24;;;;;;;7.20;2.70;;;;;;;15.70;48.00;101058.78;4998603;28;20150;-71
2022/10/23 11:57:13;;;;;;;9.75;2.80;;;;;;;15.65;47.97;101053.78;5026129;28;20033;-71
2022/10/23 11:59:52;;;;;;;9.32;3.20;;;;;;;15.37;47.95;101049.25;5025813;28;20287;-72
2022/10/23 12:02:24;;;;;;;10.25;3.70;;;;;;;15.31;48.07;101047.84;5029427;28;20335;-72